Terminal Aerodrome Forecast
Issued by NWS

Home | Current Version | Previous Version | Text Only | Print | Product List | Glossary On
Versions: 1 2 3 4 5 6 7 8 9 10 11 12 13
984
FTPA31 PHFO 232331
TAFHMK
TAF
PHMK 232331Z 2400/2424 03012G20KT P6SM SKC
     FM240600 04006KT P6SM SKC
     FM242000 04012G20KT P6SM FEW045=

USA.gov is the U.S. government's official web portal to all federal, state and local government web resources and services.